createdAt,value
2022-12-19T00:00:25.390Z,101786.69
2022-12-19T00:02:52.928Z,101773.75
2022-12-19T00:05:22.272Z,101770.34
2022-12-19T00:07:53.526Z,101778.97
2022-12-19T00:10:21.142Z,101780.75
2022-12-19T00:12:48.556Z,101779.94
2022-12-19T00:15:16.070Z,101786.03
2022-12-19T00:17:43.551Z,101782.59
2022-12-19T00:20:11.708Z,101791.28
2022-12-19T00:22:41.213Z,101785.31
2022-12-19T00:25:08.973Z,101774.09
2022-12-19T00:27:37.101Z,101769.84
2022-12-19T00:30:04.995Z,101765.53
2022-12-19T00:32:32.400Z,101754.38
2022-12-19T00:34:59.967Z,101755.28
2022-12-19T00:37:29.184Z,101750.06
2022-12-19T00:39:56.881Z,101748.41
2022-12-19T00:42:24.284Z,101730.34
2022-12-19T00:44:51.708Z,101729.47
2022-12-19T00:47:19.202Z,101699.34
2022-12-19T00:49:46.680Z,101704.47
2022-12-19T00:52:19.446Z,101702.78
2022-12-19T00:54:47.659Z,101686.44
2022-12-19T00:57:15.295Z,101651.09
2022-12-19T00:59:42.718Z,101672.66
2022-12-19T01:02:10.314Z,101674.44
2022-12-19T01:04:41.506Z,101645.16
2022-12-19T01:07:13.138Z,101677.06
2022-12-19T01:09:40.708Z,101673.69
2022-12-19T01:12:29.998Z,101685.88
2022-12-19T01:15:03.985Z,101660.09
2022-12-19T01:17:43.473Z,101655.81
2022-12-19T01:20:17.636Z,101668.00
2022-12-19T01:22:48.832Z,101668.06
2022-12-19T01:25:16.349Z,101671.59
2022-12-19T01:27:43.785Z,101666.53
2022-12-19T01:30:12.365Z,101668.34
2022-12-19T01:32:39.785Z,101662.34
2022-12-19T01:35:09.210Z,101655.53
2022-12-19T01:37:51.189Z,101640.91
2022-12-19T01:40:21.782Z,101645.28
2022-12-19T01:42:50.005Z,101642.75
2022-12-19T01:45:17.472Z,101632.44
2022-12-19T01:47:53.649Z,101623.84
2022-12-19T01:50:43.220Z,101628.22
2022-12-19T01:53:59.990Z,101651.63
2022-12-19T01:56:36.273Z,101645.53
2022-12-19T01:59:14.038Z,101626.63
2022-12-19T02:01:51.834Z,101629.22
2022-12-19T02:04:30.233Z,101625.88
2022-12-19T02:07:15.541Z,101613.84
2022-12-19T02:09:47.590Z,101613.88
2022-12-19T02:12:26.644Z,101621.69
2022-12-19T02:14:57.337Z,101605.38
2022-12-19T02:17:54.786Z,101608.03
2022-12-19T02:21:04.141Z,101589.09
2022-12-19T02:24:51.510Z,101578.75
2022-12-19T02:27:51.546Z,101591.03
2022-12-19T02:30:57.262Z,101580.72
2022-12-19T02:33:56.267Z,101582.53
2022-12-19T02:36:41.904Z,101596.44
2022-12-19T02:39:23.320Z,101579.19
2022-12-19T02:41:57.293Z,101592.25
2022-12-19T02:44:44.919Z,101588.00
2022-12-19T02:47:14.543Z,101578.50
2022-12-19T02:49:43.092Z,101576.81
2022-12-19T02:52:33.470Z,101571.72
2022-12-19T02:55:11.108Z,101563.09
2022-12-19T02:58:04.583Z,101576.09
2022-12-19T03:00:49.050Z,101562.28
2022-12-19T03:03:51.700Z,101570.16
2022-12-19T03:06:40.585Z,101551.16
2022-12-19T03:09:21.805Z,101548.63
2022-12-19T03:11:59.234Z,101540.91
2022-12-19T03:14:29.757Z,101537.47
2022-12-19T03:17:02.152Z,101550.50
2022-12-19T03:19:30.281Z,101545.34
2022-12-19T03:21:57.924Z,101544.53
2022-12-19T03:24:25.850Z,101546.31
2022-12-19T03:27:01.189Z,101533.41
2022-12-19T03:29:36.045Z,101537.75
2022-12-19T03:32:09.296Z,101549.91
2022-12-19T03:35:04.343Z,101538.69
2022-12-19T03:37:37.806Z,101543.06
2022-12-19T03:40:14.319Z,101535.28
2022-12-19T03:43:03.099Z,101540.50
2022-12-19T03:45:39.651Z,101538.00
2022-12-19T03:48:20.153Z,101539.72
2022-12-19T03:51:38.949Z,101528.50
2022-12-19T03:54:16.999Z,101528.56
2022-12-19T03:57:18.666Z,101534.72
2022-12-19T03:59:53.244Z,101520.91
2022-12-19T04:02:23.665Z,101514.94
2022-12-19T04:04:58.679Z,101506.31
2022-12-19T04:07:27.176Z,101508.97
2022-12-19T04:10:00.230Z,101506.50
2022-12-19T04:12:58.066Z,101510.88
2022-12-19T04:15:47.248Z,101500.50
2022-12-19T04:18:18.828Z,101505.72
2022-12-19T04:20:58.978Z,101504.91
2022-12-19T04:23:40.015Z,101505.78
2022-12-19T04:26:09.423Z,101491.13
2022-12-19T04:28:48.480Z,101495.50
2022-12-19T04:31:18.068Z,101499.88
2022-12-19T04:33:45.763Z,101492.16
2022-12-19T04:36:13.430Z,101489.63
2022-12-19T04:38:40.819Z,101490.47
2022-12-19T04:41:08.268Z,101489.63
2022-12-19T04:43:35.862Z,101486.25
2022-12-19T04:46:03.730Z,101482.81
2022-12-19T04:48:31.188Z,101479.41
2022-12-19T04:50:58.590Z,101474.22
2022-12-19T04:53:26.061Z,101478.59
2022-12-19T04:56:05.211Z,101475.19
2022-12-19T04:58:34.009Z,101473.56
2022-12-19T05:01:07.990Z,101472.75
2022-12-19T05:03:36.741Z,101477.13
2022-12-19T05:06:14.098Z,101474.63
2022-12-19T05:08:43.492Z,101475.50
2022-12-19T05:11:19.250Z,101483.38
2022-12-19T05:13:47.592Z,101473.03
2022-12-19T05:16:16.013Z,101484.38
2022-12-19T05:18:44.411Z,101478.38
2022-12-19T05:21:12.266Z,101483.66
2022-12-19T05:23:39.954Z,101467.25
2022-12-19T05:26:08.005Z,101471.69
2022-12-19T05:28:35.616Z,101454.38
2022-12-19T05:31:22.068Z,101465.75
2022-12-19T05:33:49.728Z,101464.94
2022-12-19T05:36:18.615Z,101460.69
2022-12-19T05:38:46.538Z,101455.56
2022-12-19T05:41:20.484Z,101458.22
2022-12-19T05:43:54.706Z,101457.38
2022-12-19T05:46:25.101Z,101457.44
2022-12-19T05:48:53.196Z,101445.38
2022-12-19T05:51:21.289Z,101442.78
2022-12-19T05:53:49.050Z,101454.13
2022-12-19T05:56:21.082Z,101453.28
2022-12-19T05:58:49.960Z,101449.88
2022-12-19T06:01:24.587Z,101451.66
2022-12-19T06:03:53.816Z,101455.16
2022-12-19T06:06:26.522Z,101455.22
2022-12-19T06:08:57.500Z,101454.38
2022-12-19T06:11:26.449Z,101452.72
2022-12-19T06:13:54.133Z,101434.50
2022-12-19T06:16:23.514Z,101458.00
2022-12-19T06:18:51.452Z,101451.06
2022-12-19T06:21:22.674Z,101451.13
2022-12-19T06:23:50.615Z,101439.84
2022-12-19T06:26:20.743Z,101461.63
2022-12-19T06:28:51.633Z,101441.69
2022-12-19T06:31:22.528Z,101446.03
2022-12-19T06:33:50.763Z,101443.47
2022-12-19T06:36:28.160Z,101460.00
2022-12-19T06:38:58.007Z,101445.25
2022-12-19T06:41:46.088Z,101456.63
2022-12-19T06:44:17.045Z,101444.47
2022-12-19T06:46:44.893Z,101451.44
2022-12-19T06:49:12.483Z,101448.00
2022-12-19T06:51:40.579Z,101453.25
2022-12-19T06:54:12.364Z,101458.47
2022-12-19T06:56:43.105Z,101455.91
2022-12-19T06:59:15.084Z,101456.78
2022-12-19T07:02:24.699Z,101453.31
2022-12-19T07:05:05.592Z,101462.03
2022-12-19T07:07:42.366Z,101466.41
2022-12-19T07:10:10.958Z,101461.19
2022-12-19T07:12:38.478Z,101462.06
2022-12-19T07:15:06.732Z,101474.28
2022-12-19T07:17:38.286Z,101472.56
2022-12-19T07:20:06.580Z,101464.75
2022-12-19T07:22:36.117Z,101473.44
2022-12-19T07:25:06.175Z,101472.56
2022-12-19T07:27:36.051Z,101466.50
2022-12-19T07:30:08.074Z,101465.63
2022-12-19T07:32:35.968Z,101464.75
2022-12-19T07:35:03.680Z,101469.97
2022-12-19T07:37:31.075Z,101469.09
2022-12-19T07:39:58.626Z,101480.44
2022-12-19T07:42:32.468Z,101475.19
2022-12-19T07:45:07.333Z,101479.53
2022-12-19T07:47:41.504Z,101484.78
2022-12-19T07:50:19.387Z,101478.69
2022-12-19T07:52:48.356Z,101475.19
2022-12-19T07:55:29.497Z,101478.69
2022-12-19T07:58:04.551Z,101477.78
2022-12-19T08:00:32.582Z,101479.53
2022-12-19T08:03:04.325Z,101482.13
2022-12-19T08:05:32.292Z,101482.16
2022-12-19T08:08:03.425Z,101477.78
2022-12-19T08:10:36.888Z,101483.91
2022-12-19T08:13:48.107Z,101492.59
2022-12-19T08:17:11.110Z,101501.31
2022-12-19T08:19:27.773Z,101492.63
2022-12-19T08:22:06.214Z,101482.16
2022-12-19T08:24:57.597Z,101494.34
2022-12-19T08:27:29.911Z,101492.59
2022-12-19T08:29:59.759Z,101495.19
2022-12-19T08:32:29.979Z,101496.97
2022-12-19T08:34:57.620Z,101507.38
2022-12-19T08:37:25.365Z,101496.94
2022-12-19T08:39:53.045Z,101499.56
2022-12-19T08:42:22.542Z,101489.97
2022-12-19T08:44:50.126Z,101505.66
2022-12-19T08:47:17.889Z,101483.00
2022-12-19T08:49:45.343Z,101478.66
2022-12-19T08:52:12.888Z,101476.91
2022-12-19T08:54:40.457Z,101486.47
2022-12-19T08:57:07.912Z,101491.69
2022-12-19T08:59:35.366Z,101491.69
2022-12-19T09:02:05.786Z,101489.06
2022-12-19T09:06:00.590Z,101495.16
2022-12-19T09:07:22.953Z,101491.69
2022-12-19T09:09:50.391Z,101498.66
2022-12-19T09:12:18.015Z,101503.00
2022-12-19T09:14:45.466Z,101498.66
2022-12-19T09:17:13.228Z,101498.63
2022-12-19T09:19:41.931Z,101497.78
2022-12-19T09:22:15.401Z,101494.28
2022-12-19T09:24:42.896Z,101499.50
2022-12-19T09:28:27.604Z,101508.22
2022-12-19T09:31:37.314Z,101507.34
2022-12-19T09:34:08.682Z,101509.09
2022-12-19T09:36:36.164Z,101514.31
2022-12-19T09:39:03.852Z,101511.69
2022-12-19T09:41:53.383Z,101521.28
2022-12-19T09:45:40.827Z,101508.19
2022-12-19T09:48:23.645Z,101515.16
2022-12-19T09:51:09.445Z,101511.66
2022-12-19T09:53:58.257Z,101516.91
2022-12-19T09:56:45.604Z,101516.00
2022-12-19T09:59:56.075Z,101522.97
2022-12-19T10:02:57.033Z,101521.22
2022-12-19T10:06:35.407Z,101515.09
2022-12-19T10:09:04.885Z,101514.22
2022-12-19T10:12:46.001Z,101510.72
2022-12-19T10:15:08.261Z,101523.78
2022-12-19T10:18:16.557Z,101520.25
2022-12-19T10:21:12.918Z,101523.75
2022-12-19T10:24:04.903Z,101515.91
2022-12-19T10:26:50.944Z,101511.56
2022-12-19T10:30:16.698Z,101516.75
2022-12-19T10:33:05.600Z,101511.50
2022-12-19T10:35:40.763Z,101507.13
2022-12-19T10:38:24.355Z,101516.72
2022-12-19T10:41:15.765Z,101511.44
2022-12-19T10:44:02.667Z,101514.91
2022-12-19T10:47:42.774Z,101501.81
2022-12-19T10:50:30.007Z,101501.81
2022-12-19T10:53:27.884Z,101498.31
2022-12-19T10:56:02.480Z,101504.44
2022-12-19T10:58:37.524Z,101502.66
2022-12-19T11:01:28.663Z,101510.50
2022-12-19T11:04:30.248Z,101502.66
2022-12-19T11:07:03.679Z,101499.13
2022-12-19T11:09:49.569Z,101500.00
2022-12-19T11:16:59.594Z,101503.47
2022-12-19T11:20:19.333Z,101500.84
2022-12-19T11:24:24.160Z,101499.09
2022-12-19T11:29:33.804Z,101485.94
2022-12-19T11:29:54.275Z,101492.97
2022-12-19T11:30:45.503Z,101487.69
2022-12-19T11:32:45.878Z,101475.44
2022-12-19T11:35:37.036Z,101486.78
2022-12-19T11:38:08.367Z,101470.16
2022-12-19T11:40:50.136Z,101479.78
2022-12-19T11:43:45.470Z,101473.69
2022-12-19T11:46:38.516Z,101472.78
2022-12-19T11:49:15.605Z,101459.69
2022-12-19T11:52:00.355Z,101464.00
2022-12-19T11:54:37.786Z,101457.00
2022-12-19T11:57:12.888Z,101455.25
2022-12-19T11:59:40.875Z,101460.44
2022-12-19T12:02:51.690Z,101456.91
2022-12-19T12:05:42.465Z,101446.41
2022-12-19T12:11:08.765Z,101449.91
2022-12-19T12:21:23.866Z,101442.91
2022-12-19T12:24:06.273Z,101445.47
2022-12-19T12:28:55.249Z,101442.84
2022-12-19T12:31:27.851Z,101439.31
2022-12-19T12:31:40.360Z,101439.19
2022-12-19T12:31:42.136Z,101442.75
2022-12-19T12:31:44.254Z,101437.53
2022-12-19T12:35:50.924Z,101435.69
2022-12-19T12:38:10.852Z,101431.25
2022-12-19T12:39:50.772Z,101418.97
2022-12-19T12:43:00.563Z,101423.31
2022-12-19T12:45:40.343Z,101420.69
2022-12-19T12:48:27.583Z,101425.84
2022-12-19T12:51:00.305Z,101418.84
2022-12-19T12:53:43.037Z,101425.78
2022-12-19T12:56:16.173Z,101421.41
2022-12-19T12:58:46.632Z,101422.25
2022-12-19T13:01:29.378Z,101437.06
2022-12-19T13:04:05.531Z,101422.19
2022-12-19T13:06:51.431Z,101424.78
2022-12-19T13:09:34.053Z,101424.72
2022-12-19T13:12:36.124Z,101415.09
2022-12-19T13:15:22.409Z,101415.09
2022-12-19T13:17:49.767Z,101409.84
2022-12-19T13:20:17.053Z,101402.84
2022-12-19T13:23:19.739Z,101394.09
2022-12-19T13:25:52.553Z,101392.34
2022-12-19T13:28:22.912Z,101386.22
2022-12-19T13:31:19.450Z,101365.16
2022-12-19T13:33:51.840Z,101359.91
2022-12-19T13:39:50.480Z,101353.72
2022-12-19T13:40:09.121Z,101344.13
2022-12-19T13:43:09.652Z,101343.25
2022-12-19T13:45:42.577Z,101334.50
2022-12-19T13:48:31.908Z,101337.97
2022-12-19T13:51:07.031Z,101338.81
2022-12-19T13:53:36.063Z,101327.41
2022-12-19T13:56:17.858Z,101321.28
2022-12-19T13:58:59.218Z,101323.94
2022-12-19T14:01:33.842Z,101331.78
2022-12-19T14:04:07.926Z,101322.16
2022-12-19T14:06:47.191Z,101320.38
2022-12-19T14:11:25.893Z,101318.59
2022-12-19T14:13:47.220Z,101322.97
2022-12-19T14:15:41.225Z,101332.59
2022-12-19T14:18:45.319Z,101330.81
2022-12-19T14:22:06.142Z,101314.22
2022-12-19T14:24:13.921Z,101315.97
2022-12-19T14:28:24.084Z,101315.06
2022-12-19T14:30:26.671Z,101301.97
2022-12-19T14:33:46.478Z,101298.50
2022-12-19T14:36:07.058Z,101302.84
2022-12-19T14:39:23.114Z,101294.97
2022-12-19T14:41:48.601Z,101308.94
2022-12-19T14:50:59.815Z,101294.06
2022-12-19T14:54:18.060Z,101308.09
2022-12-19T14:54:21.239Z,101304.59
2022-12-19T14:54:42.091Z,101312.44
2022-12-19T14:59:28.425Z,101294.88
2022-12-19T15:02:06.816Z,101289.59
2022-12-19T15:04:59.381Z,101292.22
2022-12-19T15:07:50.182Z,101283.47
2022-12-19T15:11:03.132Z,101303.59
2022-12-19T15:14:53.786Z,101307.09
2022-12-19T15:17:26.271Z,101314.97
2022-12-19T15:20:05.338Z,101303.59
2022-12-19T15:22:34.214Z,101296.56
2022-12-19T15:25:43.969Z,101301.81
2022-12-19T15:28:43.530Z,101304.44
2022-12-19T15:31:28.087Z,101303.59
2022-12-19T15:36:43.811Z,101310.56
2022-12-19T15:39:11.375Z,101327.16
2022-12-19T15:41:38.900Z,101334.16
2022-12-19T15:44:16.312Z,101329.78
2022-12-19T15:46:48.629Z,101341.19
2022-12-19T15:49:19.845Z,101341.19
2022-12-19T15:51:48.409Z,101353.41
2022-12-19T15:57:04.308Z,101362.19
2022-12-19T15:59:45.366Z,101356.03
2022-12-19T16:02:22.659Z,101339.44
2022-12-19T16:04:54.478Z,101335.09
2022-12-19T16:07:25.617Z,101342.97
2022-12-19T16:09:54.521Z,101352.63
2022-12-19T16:12:31.612Z,101356.97
2022-12-19T16:15:10.944Z,101351.72
2022-12-19T16:17:38.446Z,101343.84
2022-12-19T16:20:29.022Z,101340.34
2022-12-19T16:22:56.900Z,101336.88
2022-12-19T16:25:34.980Z,101334.25
2022-12-19T16:28:06.108Z,101343.88
2022-12-19T16:30:35.620Z,101349.13
2022-12-19T16:33:03.115Z,101347.38
2022-12-19T16:38:19.229Z,101344.75
2022-12-19T16:40:48.777Z,101341.25
2022-12-19T16:43:30.043Z,101340.34
2022-12-19T16:46:01.570Z,101338.59
2022-12-19T16:48:30.378Z,101343.84
2022-12-19T16:51:01.245Z,101351.72
2022-12-19T16:53:29.489Z,101360.50
2022-12-19T16:55:59.557Z,101354.34
2022-12-19T16:58:29.282Z,101356.09
2022-12-19T17:00:57.331Z,101356.09
2022-12-19T17:03:42.870Z,101356.94
2022-12-19T17:06:19.545Z,101352.56
2022-12-19T17:08:48.291Z,101355.19
2022-12-19T17:11:25.831Z,101341.19
2022-12-19T17:14:10.110Z,101342.91
2022-12-19T17:16:37.868Z,101329.81
2022-12-19T17:19:06.078Z,101339.41
2022-12-19T17:21:33.603Z,101329.78
2022-12-19T17:24:01.009Z,101331.53
2022-12-19T17:26:28.501Z,101336.72
2022-12-19T17:28:55.939Z,101337.56
2022-12-19T17:31:28.158Z,101346.25
2022-12-19T17:33:57.941Z,101334.88
2022-12-19T17:36:36.753Z,101341.88
2022-12-19T17:39:34.562Z,101345.38
2022-12-19T17:42:16.709Z,101334.88
2022-12-19T17:44:46.743Z,101331.38
2022-12-19T17:47:22.807Z,101337.47
2022-12-19T17:49:50.917Z,101334.81
2022-12-19T17:52:20.101Z,101332.19
2022-12-19T17:54:47.756Z,101333.91
2022-12-19T17:57:17.808Z,101330.34
2022-12-19T17:59:48.166Z,101325.97
2022-12-19T18:02:26.166Z,101319.81
2022-12-19T18:04:53.972Z,101334.66
2022-12-19T18:07:21.487Z,101327.63
2022-12-19T18:09:48.990Z,101323.19
2022-12-19T18:12:16.544Z,101312.69
2022-12-19T18:14:44.003Z,101314.44
2022-12-19T18:17:25.637Z,101327.50
2022-12-19T18:19:53.281Z,101319.63
2022-12-19T18:22:20.780Z,101316.13
2022-12-19T18:24:48.255Z,101317.00
2022-12-19T18:27:15.714Z,101317.84
2022-12-19T18:29:43.145Z,101323.06
2022-12-19T18:32:20.644Z,101324.78
2022-12-19T18:34:48.218Z,101357.22
2022-12-19T18:37:15.975Z,101341.47
2022-12-19T18:39:43.508Z,101351.06
2022-12-19T18:42:20.740Z,101352.81
2022-12-19T18:44:48.377Z,101344.00
2022-12-19T18:47:25.360Z,101351.88
2022-12-19T18:49:53.273Z,101351.03
2022-12-19T18:52:20.764Z,101353.63
2022-12-19T18:54:48.293Z,101357.13
2022-12-19T18:57:15.808Z,101364.09
2022-12-19T18:59:43.237Z,101354.50
2022-12-19T19:02:27.465Z,101356.22
2022-12-19T19:04:55.816Z,101351.84
2022-12-19T19:07:23.278Z,101350.94
2022-12-19T19:09:50.781Z,101343.97
2022-12-19T19:12:49.137Z,101340.44
2022-12-19T19:15:33.589Z,101344.81
2022-12-19T19:18:06.236Z,101350.06
2022-12-19T19:20:39.003Z,101340.41
2022-12-19T19:23:09.963Z,101344.75
2022-12-19T19:25:38.421Z,101340.41
2022-12-19T19:28:07.315Z,101352.63
2022-12-19T19:30:39.221Z,101357.03
2022-12-19T19:33:17.254Z,101357.03
2022-12-19T19:35:50.927Z,101353.53
2022-12-19T19:38:22.481Z,101347.44
2022-12-19T19:40:50.545Z,101357.97
2022-12-19T19:43:18.003Z,101352.69
2022-12-19T19:45:46.915Z,101354.41
2022-12-19T19:48:14.518Z,101354.41
2022-12-19T19:50:42.204Z,101358.81
2022-12-19T19:53:09.798Z,101360.59
2022-12-19T19:55:37.287Z,101364.94
2022-12-19T19:58:05.235Z,101371.94
2022-12-19T20:00:32.880Z,101369.22
2022-12-19T20:03:06.173Z,101369.09
2022-12-19T20:05:36.064Z,101367.31
2022-12-19T20:08:47.686Z,101377.81
2022-12-19T20:11:15.758Z,101377.00
2022-12-19T20:13:43.554Z,101375.22
2022-12-19T20:16:16.987Z,101387.50
2022-12-19T20:18:50.693Z,101384.91
2022-12-19T20:21:20.573Z,101389.31
2022-12-19T20:23:48.317Z,101391.09
2022-12-19T20:26:17.344Z,101383.22
2022-12-19T20:28:49.547Z,101384.13
2022-12-19T20:31:20.700Z,101375.31
2022-12-19T20:33:49.102Z,101367.34
2022-12-19T20:36:17.555Z,101351.56
2022-12-19T20:38:45.981Z,101373.44
2022-12-19T20:41:13.997Z,101380.50
2022-12-19T20:43:42.105Z,101374.41
2022-12-19T20:46:14.537Z,101377.03
2022-12-19T20:48:42.554Z,101386.69
2022-12-19T20:51:10.237Z,101377.97
2022-12-19T20:53:41.615Z,101374.47
2022-12-19T20:56:14.725Z,101384.13
2022-12-19T20:58:42.882Z,101381.50
2022-12-19T21:01:20.190Z,101385.00
2022-12-19T21:03:48.587Z,101379.84
2022-12-19T21:06:25.269Z,101384.22
2022-12-19T21:08:55.402Z,101388.63
2022-12-19T21:11:26.182Z,101389.50
2022-12-19T21:13:54.028Z,101389.56
2022-12-19T21:16:23.133Z,101390.44
2022-12-19T21:19:00.340Z,101395.75
2022-12-19T21:21:27.987Z,101393.16
2022-12-19T21:23:55.741Z,101393.16
2022-12-19T21:26:25.839Z,101385.28
2022-12-19T21:28:57.977Z,101390.59
2022-12-19T21:31:30.059Z,101399.34
2022-12-19T21:34:00.352Z,101385.38
2022-12-19T21:36:30.157Z,101390.63
2022-12-19T21:39:00.039Z,101388.94
2022-12-19T21:41:28.304Z,101386.31
2022-12-19T21:43:57.480Z,101382.00
2022-12-19T21:46:30.402Z,101375.88
2022-12-19T21:48:58.562Z,101367.16
2022-12-19T21:51:30.236Z,101383.78
2022-12-19T21:54:00.699Z,101383.03
2022-12-19T21:56:35.495Z,101377.84
2022-12-19T21:59:09.759Z,101371.69
2022-12-19T22:01:37.690Z,101363.78
2022-12-19T22:04:21.012Z,101371.59
2022-12-19T22:06:51.112Z,101368.97
2022-12-19T22:09:22.464Z,101360.16
2022-12-19T22:11:50.112Z,101373.28
2022-12-19T22:14:18.420Z,101370.63
2022-12-19T22:16:46.115Z,101366.22
2022-12-19T22:19:17.198Z,101365.28
2022-12-19T22:21:46.676Z,101360.81
2022-12-19T22:24:16.205Z,101371.31
2022-12-19T22:26:43.877Z,101363.41
2022-12-19T22:29:15.662Z,101368.66
2022-12-19T22:31:44.517Z,101360.88
2022-12-19T22:34:19.678Z,101346.09
2022-12-19T22:36:49.017Z,101345.28
2022-12-19T22:39:20.633Z,101334.03
2022-12-19T22:41:48.455Z,101327.22
2022-12-19T22:44:23.147Z,101331.66
2022-12-19T22:46:51.506Z,101326.47
2022-12-19T22:49:19.704Z,101328.31
2022-12-19T22:51:47.333Z,101325.72
2022-12-19T22:54:15.141Z,101321.41
2022-12-19T22:56:42.651Z,101314.47
2022-12-19T22:59:12.567Z,101315.38
2022-12-19T23:01:44.251Z,101316.28
2022-12-19T23:04:15.432Z,101323.34
2022-12-19T23:06:44.273Z,101323.41
2022-12-19T23:09:16.334Z,101320.78
2022-12-19T23:11:49.008Z,101322.56
2022-12-19T23:14:19.096Z,101332.22
2022-12-19T23:16:47.468Z,101325.25
2022-12-19T23:19:16.127Z,101320.03
2022-12-19T23:21:44.061Z,101314.75
2022-12-19T23:24:12.209Z,101312.09
2022-12-19T23:26:39.748Z,101323.47
2022-12-19T23:29:11.976Z,101307.69
2022-12-19T23:31:43.811Z,101322.50
2022-12-19T23:34:11.624Z,101315.47
2022-12-19T23:39:27.318Z,101313.59
2022-12-19T23:41:54.763Z,101319.63
2022-12-19T23:44:22.232Z,101317.81
2022-12-19T23:46:49.657Z,101312.50
2022-12-19T23:49:17.512Z,101313.28
2022-12-19T23:51:45.092Z,101306.22
2022-12-19T23:54:12.604Z,101296.50
2022-12-19T23:56:40.221Z,101303.41
2022-12-19T23:59:07.693Z,101301.56
